Time;durP1;ratioP1;P1;durP2;ratioP2;P2;SDS_P1;SDS_P2;PMS_P1;PMS_P2;Temp;Humidity;BMP_temperature;BMP_pressure;BME280_temperature;BME280_humidity;BME280_pressure;Samples;Min_cycle;Max_cycle;Signal;HPM_P1;HPM_P2
2022/01/12 05:55:57;;;;;;;;;;;;;;;;;;2030872;29;1185;-91
2022/01/12 05:57:13;;;;;;;;;;;;;;;;;;2036101;29;1086;-91
2022/01/12 05:58:15;;;;;;;;;;;;;;;;;;2034513;29;1347;-91
2022/01/12 05:59:17;;;;;;;;;;;;;;;;;;2039719;28;1915;-91
2022/01/12 06:00:27;;;;;;;;;;;;;;;;;;2058736;28;1545;-91
2022/01/12 06:01:34;;;;;;;;;;;;;;;;;;2057912;28;1431;-91
2022/01/12 06:02:38;;;;;;;;;;;;;;;;;;2058842;28;1344;-92
2022/01/12 06:05:07;;;;;;;;;;;;;;;;;;2049957;28;1813;-92
2022/01/12 06:06:09;;;;;;;;;;;;;;;;;;2052311;28;1324;-93
2022/01/12 06:07:13;;;;;;;;;;;;;;;;;;2054902;28;1283;-92
2022/01/12 06:08:16;;;;;;;;;;;;;;;;;;2057908;28;1671;-93
2022/01/12 06:09:19;;;;;;;;;;;;;;;;;;2046863;28;1283;-93
2022/01/12 06:10:23;;;;;;;;;;;;;;;;;;2040521;29;1235;-93
2022/01/12 06:11:28;;;;;;;;;;;;;;;;;;2049545;28;1356;-93
2022/01/12 06:12:30;;;;;;;;;;;;;;;;;;2060524;28;1769;-92
2022/01/12 06:13:35;;;;;;;;;;;;;;;;;;2051819;28;1392;-93
2022/01/12 06:14:38;;;;;;;;;;;;;;;;;;2051830;28;1913;-92
2022/01/12 06:15:42;;;;;;;;;;;;;;;;;;2061222;28;1373;-93
2022/01/12 06:16:46;;;;;;;;;;;;;;;;;;2052232;28;1280;-93
2022/01/12 06:17:48;;;;;;;;;;;;;;;;;;2053170;28;1711;-93
2022/01/12 06:18:52;;;;;;;;;;;;;;;;;;2049883;28;1947;-93
2022/01/12 06:19:53;;;;;;;;;;;;;;;;;;2054892;28;1393;-93
2022/01/12 06:21:13;;;;;;;;;;;;;;;;;;2057723;28;1498;-94
2022/01/12 06:22:32;;;;;;;;;;;;;;;;;;2059841;28;1175;-93
2022/01/12 06:23:36;;;;;;;;;;;;;;;;;;2052420;28;1459;-93
2022/01/12 06:24:37;;;;;;;;;;;;;;;;;;2044538;29;1319;-92
2022/01/12 06:25:39;;;;;;;;;;;;;;;;;;2049488;28;1338;-92
2022/01/12 06:26:43;;;;;;;;;;;;;;;;;;2057186;28;1754;-92
2022/01/12 06:27:51;;;;;;;;;;;;;;;;;;2061997;28;1457;-93
2022/01/12 06:29:22;;;;;;;;;;;;;;;;;;2047634;28;1295;-93
2022/01/12 06:31:46;;;;;;;;;;;;;;;;;;2043607;28;1262;-92
2022/01/12 06:32:48;;;;;;;;;;;;;;;;;;2052884;28;1329;-92
2022/01/12 06:33:50;;;;;;;;;;;;;;;;;;2053948;28;1333;-92
2022/01/12 06:34:53;;;;;;;;;;;;;;;;;;2054830;28;1375;-93
2022/01/12 06:35:55;;;;;;;;;;;;;;;;;;2060335;28;1865;-92
2022/01/12 06:36:57;;;;;;;;;;;;;;;;;;2053051;28;1578;-92
2022/01/12 06:38:00;;;;;;;;;;;;;;;;;;2050804;28;1377;-92
2022/01/12 06:39:02;;;;;;;;;;;;;;;;;;2059671;28;1919;-92
2022/01/12 06:40:04;;;;;;;;;;;;;;;;;;2059863;28;1317;-92
2022/01/12 06:41:06;;;;;;;;;;;;;;;;;;2060351;28;1537;-92
2022/01/12 06:42:10;;;;;;;;;;;;;;;;;;2059866;28;1218;-92
2022/01/12 06:43:11;;;;;;;;;;;;;;;;;;2044093;29;1358;-92
2022/01/12 06:44:15;;;;;;;;;;;;;;;;;;2044564;28;1212;-92
2022/01/12 06:45:16;;;;;;;;;;;;;;;;;;2061924;28;1338;-92
2022/01/12 06:46:25;;;;;;;;;;;;;;;;;;2059730;28;1353;-92
2022/01/12 06:47:28;;;;;;;;;;;;;;;;;;2056917;28;1691;-92
2022/01/12 06:48:29;;;;;;;;;;;;;;;;;;2051952;28;1200;-92
2022/01/12 06:49:32;;;;;;;;;;;;;;;;;;2036303;29;1366;-92
2022/01/12 06:50:34;;;;;;;;;;;;;;;;;;2052834;28;1361;-92
2022/01/12 06:51:35;;;;;;;;;;;;;;;;;;2051100;28;1318;-92
2022/01/12 06:52:42;;;;;;;;;;;;;;;;;;2041693;29;1413;-90
2022/01/12 06:53:42;;;;;;;;;;;;;;;;;;2051426;28;1365;-92
2022/01/12 06:54:44;;;;;;;;;;;;;;;;;;2049877;28;1384;-92
2022/01/12 06:55:48;;;;;;;;;;;;;;;;;;2051596;28;1369;-92
2022/01/12 06:56:52;;;;;;;;;;;;;;;;;;2058694;28;1872;-92
2022/01/12 06:57:57;;;;;;;;;;;;;;;;;;2051478;28;1329;-92
2022/01/12 06:59:01;;;;;;;;;;;;;;;;;;2049062;28;1911;-93
2022/01/12 07:00:03;;;;;;;;;;;;;;;;;;2057344;28;1454;-92
2022/01/12 07:01:05;;;;;;;;;;;;;;;;;;2060134;28;1357;-93
2022/01/12 07:02:08;;;;;;;;;;;;;;;;;;2049445;28;1592;-92
2022/01/12 07:03:13;;;;;;;;;;;;;;;;;;2049886;28;1413;-92
2022/01/12 07:04:24;;;;;;;;;;;;;;;;;;2055354;28;1239;-92
2022/01/12 07:05:30;;;;;;;;;;;;;;;;;;2049633;28;1537;-91
2022/01/12 07:06:34;;;;;;;;;;;;;;;;;;2050775;28;1445;-91
2022/01/12 07:07:36;;;;;;;;;;;;;;;;;;2050807;28;1385;-91
2022/01/12 07:08:47;;;;;;;;;;;;;;;;;;2051267;28;1775;-91
2022/01/12 07:09:58;;;;;;;;;;;;;;;;;;2053504;28;1237;-92
2022/01/12 07:11:02;;;;;;;;;;;;;;;;;;2043986;29;1425;-91
2022/01/12 07:12:07;;;;;;;;;;;;;;;;;;2050690;28;1238;-90
2022/01/12 07:13:13;;;;;;;;;;;;;;;;;;2053314;28;1318;-91
2022/01/12 07:14:16;;;;;;;;;;;;;;;;;;2044440;29;2072;-92
2022/01/12 07:15:25;;;;;;;;;;;;;;;;;;2046427;28;1423;-91
2022/01/12 07:16:37;;;;;;;;;;;;;;;;;;2050674;28;1388;-90
2022/01/12 07:17:39;;;;;;;;;;;;;;;;;;2048157;28;1603;-91
2022/01/12 07:18:40;;;;;;;;;;;;;;;;;;2051380;28;1266;-91
2022/01/12 07:19:44;;;;;;;;;;;;;;;;;;2055648;28;1981;-92
2022/01/12 07:20:46;;;;;;;;;;;;;;;;;;2043074;29;1270;-92
2022/01/12 07:21:48;;;;;;;;;;;;;;;;;;2055509;28;1396;-91
2022/01/12 07:23:04;;;;;;;;;;;;;;;;;;2050085;28;1368;-91
2022/01/12 07:24:06;;;;;;;;;;;;;;;;;;2051739;28;1270;-92
2022/01/12 07:25:16;;;;;;;;;;;;;;;;;;2055390;28;1445;-91
2022/01/12 07:26:17;;;;;;;;;;;;;;;;;;2050442;28;1618;-91
2022/01/12 07:27:19;;;;;;;;;;;;;;;;;;2058379;28;1297;-92
2022/01/12 07:28:23;;;;;;;;;;;;;;;;;;2058737;28;1403;-90
2022/01/12 07:29:25;;;;;;;;;;;;;;;;;;2048322;29;1471;-92
2022/01/12 07:30:26;;;;;;;;;;;;;;;;;;2052807;28;1571;-93
2022/01/12 07:31:28;;;;;;;;;;;;;;;;;;2056092;28;1239;-92
2022/01/12 07:32:29;;;;;;;;;;;;;;;;;;2050622;29;1394;-93
2022/01/12 07:33:31;;;;;;;;;;;;;;;;;;2050564;28;1384;-93
2022/01/12 07:34:43;;;;;;;;;;;;;;;;;;2058977;28;1385;-92
2022/01/12 07:35:48;;;;;;;;;;;;;;;;;;2049193;28;1636;-91
2022/01/12 07:36:52;;;;;;;;;;;;;;;;;;2051173;28;1310;-91
2022/01/12 07:37:59;;;;;;;;;;;;;;;;;;2052986;28;1377;-91
2022/01/12 07:39:18;;;;;;;;;;;;;;;;;;2052890;28;1960;-91
2022/01/12 07:42:22;;;;;;;;;;;;;;;;;;2037323;29;1692;-91
2022/01/12 07:43:28;;;;;;;;;;;;;;;;;;2054811;28;1401;-93
2022/01/12 07:48:05;;;;;;;;;;;;;;;;;;2060062;28;1675;-92
2022/01/12 07:49:36;;;;;;;;;;;;;;;;;;2050359;28;1340;-91
2022/01/12 07:50:47;;;;;;;;;;;;;;;;;;2051323;28;1629;-91
2022/01/12 07:51:57;;;;;;;;;;;;;;;;;;2054220;28;1266;-91
2022/01/12 07:53:08;;;;;;;;;;;;;;;;;;2059848;28;1417;-92
2022/01/12 07:54:26;;;;;;;;;;;;;;;;;;2052489;28;2007;-92
2022/01/12 07:55:51;;;;;;;;;;;;;;;;;;2053435;28;1956;-91
2022/01/12 07:56:52;;;;;;;;;;;;;;;;;;2056011;28;1310;-92
2022/01/12 07:57:54;;;;;;;;;;;;;;;;;;2058707;28;1365;-91
2022/01/12 07:58:57;;;;;;;;;;;;;;;;;;2058597;28;1442;-92
2022/01/12 08:00:03;;;;;;;;;;;;;;;;;;2058749;28;1930;-92
2022/01/12 08:01:28;;;;;;;;;;;;;;;;;;2051880;28;1309;-92
2022/01/12 08:02:32;;;;;;;;;;;;;;;;;;2058275;28;1544;-92
2022/01/12 08:03:37;;;;;;;;;;;;;;;;;;2056347;28;1318;-91
2022/01/12 08:04:45;;;;;;;;;;;;;;;;;;2042770;29;1379;-92
2022/01/12 08:06:12;;;;;;;;;;;;;;;;;;2048574;28;1348;-92
2022/01/12 08:07:20;;;;;;;;;;;;;;;;;;2046537;28;1315;-93
2022/01/12 08:08:24;;;;;;;;;;;;;;;;;;2046190;29;1381;-92
2022/01/12 08:09:26;;;;;;;;;;;;;;;;;;2050418;28;1441;-93
2022/01/12 08:10:28;;;;;;;;;;;;;;;;;;2053602;28;1303;-92
2022/01/12 08:11:33;;;;;;;;;;;;;;;;;;2055172;28;1696;-94
2022/01/12 08:12:41;;;;;;;;;;;;;;;;;;2051836;28;1363;-93
2022/01/12 08:13:45;;;;;;;;;;;;;;;;;;2043808;29;1369;-92
2022/01/12 08:14:55;;;;;;;;;;;;;;;;;;2050338;28;1888;-92
2022/01/12 08:16:01;;;;;;;;;;;;;;;;;;2053967;28;1275;-92
2022/01/12 08:17:06;;;;;;;;;;;;;;;;;;2044200;29;1661;-92
2022/01/12 08:18:12;;;;;;;;;;;;;;;;;;2052679;28;1330;-92
2022/01/12 08:19:29;;;;;;;;;;;;;;;;;;2050180;29;893;-92
2022/01/12 08:20:57;;;;;;;;;;;;;;;;;;2056573;28;1979;-92
2022/01/12 08:23:53;;;;;;;;;;;;;;;;;;2047117;28;1771;-91
2022/01/12 08:25:11;;;;;;;;;;;;;;;;;;2045228;29;1404;-91
2022/01/12 08:26:36;;;;;;;;;;;;;;;;;;2044447;28;1725;-91
2022/01/12 08:27:52;;;;;;;;;;;;;;;;;;2050575;28;1234;-92
2022/01/12 08:31:05;;;;;;;;;;;;;;;;;;2040198;29;1486;-92
2022/01/12 08:32:26;;;;;;;;;;;;;;;;;;2045937;28;1774;-91
2022/01/12 08:37:19;;;;;;;;;;;;;;;;;;2039591;29;1228;-92
2022/01/12 08:38:52;;;;;;;;;;;;;;;;;;2052858;28;2013;-92
2022/01/12 08:39:56;;;;;;;;;;;;;;;;;;2053756;28;1981;-90
2022/01/12 08:41:01;;;;;;;;;;;;;;;;;;2051010;28;1771;-90
2022/01/12 08:42:39;;;;;;;;;;;;;;;;;;2049968;29;1070;-92
2022/01/12 08:43:45;;;;;;;;;;;;;;;;;;2047489;28;1368;-90
2022/01/12 08:45:00;;;;;;;;;;;;;;;;;;2057079;28;1659;-89
2022/01/12 08:47:03;;;;;;;;;;;;;;;;;;;;;
2022/01/12 08:50:19;;;;;;;;;;;;;;;;;;2037909;28;1427;-90
2022/01/12 08:51:57;;;;;;;;;;;;;;;;;;2062580;28;1259;-90
2022/01/12 08:53:04;;;;;;;;;;;;;;;;;;2056581;28;1616;-91
2022/01/12 08:54:07;;;;;;;;;;;;;;;;;;2066533;28;1308;-90
2022/01/12 08:57:03;;;;;;;;;;;;;;;;;;2041699;28;1746;-90
2022/01/12 08:58:40;;;;;;;;;;;;;;;;;;2063236;28;1335;-91
2022/01/12 08:59:47;;;;;;;;;;;;;;;;;;2066531;28;1840;-90
2022/01/12 09:01:18;;;;;;;;;;;;;;;;;;2066229;28;1328;-91
2022/01/12 09:03:05;;;;;;;;;;;;;;;;;;2058777;28;1748;-92
2022/01/12 09:05:47;;;;;;;;;;;;;;;;;;2054126;28;1755;-92
2022/01/12 09:07:01;;;;;;;;;;;;;;;;;;2059008;28;1418;-91
2022/01/12 09:08:14;;;;;;;;;;;;;;;;;;2065680;28;1828;-91
2022/01/12 09:09:24;;;;;;;;;;;;;;;;;;2063164;28;1663;-94
2022/01/12 09:10:31;;;;;;;;;;;;;;;;;;2064513;28;1661;-92
2022/01/12 09:11:47;;;;;;;;;;;;;;;;;;2058397;28;2013;-92
2022/01/12 09:13:03;;;;;;;;;;;;;;;;;;2059416;28;1590;-91
2022/01/12 09:14:18;;;;;;;;;;;;;;;;;;2058651;28;1746;-92
2022/01/12 09:15:30;;;;;;;;;;;;;;;;;;2060294;28;1449;-91
2022/01/12 09:16:45;;;;;;;;;;;;;;;;;;2068744;28;1396;-93
2022/01/12 09:18:02;;;;;;;;;;;;;;;;;;2070095;28;1555;-91
2022/01/12 09:19:48;;;;;;;;;;;;;;;;;;2059937;28;1245;-91
2022/01/12 09:21:06;;;;;;;;;;;;;;;;;;2058546;28;1977;-92
2022/01/12 09:24:09;;;;;;;;;;;;;;;;;;2063389;28;1163;-93
2022/01/12 09:25:20;;;;;;;;;;;;;;;;;;2058029;28;1298;-95
2022/01/12 09:28:22;;;;;;;;;;;;;;;;;;2043232;29;1357;-93
2022/01/12 09:29:54;;;;;;;;;;;;;;;;;;2057938;28;1734;-92
2022/01/12 09:30:59;;;;;;;;;;;;;;;;;;2049992;28;1411;-93
2022/01/12 09:32:18;;;;;;;;;;;;;;;;;;2043236;29;1526;-92
2022/01/12 09:33:32;;;;;;;;;;;;;;;;;;2052138;28;1414;-92
2022/01/12 09:34:43;;;;;;;;;;;;;;;;;;2059231;28;1297;-94
2022/01/12 09:35:57;;;;;;;;;;;;;;;;;;2059585;28;1806;-93
2022/01/12 09:37:05;;;;;;;;;;;;;;;;;;2067913;28;1275;-91
2022/01/12 09:38:16;;;;;;;;;;;;;;;;;;2073289;28;1805;-92
2022/01/12 09:39:48;;;;;;;;;;;;;;;;;;2070302;28;1276;-93
2022/01/12 09:41:05;;;;;;;;;;;;;;;;;;2066699;28;1914;-92
2022/01/12 09:43:37;;;;;;;;;;;;;;;;;;2057000;28;1299;-92
2022/01/12 09:44:47;;;;;;;;;;;;;;;;;;2073906;28;1558;-93
2022/01/12 09:46:34;;;;;;;;;;;;;;;;;;2069670;28;1731;-93
2022/01/12 09:50:27;;;;;;;;;;;;;;;;;;2076210;28;1740;-94
2022/01/12 09:51:33;;;;;;;;;;;;;;;;;;2066799;28;1487;-93
2022/01/12 09:52:38;;;;;;;;;;;;;;;;;;2067599;28;1498;-91
2022/01/12 09:53:42;;;;;;;;;;;;;;;;;;2068116;28;1757;-91
2022/01/12 09:55:00;;;;;;;;;;;;;;;;;;2077418;28;1646;-94
2022/01/12 09:58:19;;;;;;;;;;;;;;;;;;2059307;28;1172;-92
2022/01/12 09:59:35;;;;;;;;;;;;;;;;;;2065112;28;1552;-92
2022/01/12 10:00:56;;;;;;;;;;;;;;;;;;2066946;28;1919;-94
2022/01/12 10:02:25;;;;;;;;;;;;;;;;;;2074306;28;1591;-95
2022/01/12 10:03:59;;;;;;;;;;;;;;;;;;2069353;28;1477;-93
2022/01/12 10:07:12;;;;;;;;;;;;;;;;;;2065264;28;1217;-93
2022/01/12 10:09:57;;;;;;;;;;;;;;;;;;2061438;28;1342;-93
2022/01/12 10:11:06;;;;;;;;;;;;;;;;;;2059328;28;1932;-92
2022/01/12 10:12:17;;;;;;;;;;;;;;;;;;2073839;28;1222;-91
2022/01/12 10:15:50;;;;;;;;;;;;;;;;;;2043158;28;1324;-92
2022/01/12 10:21:53;;;;;;;;;;;;;;;;;;2077640;28;1545;-92
2022/01/12 10:23:15;;;;;;;;;;;;;;;;;;2073591;28;1749;-92
2022/01/12 10:24:43;;;;;;;;;;;;;;;;;;2059725;28;1300;-91
2022/01/12 10:27:25;;;;;;;;;;;;;;;;;;2059165;28;1476;-94
2022/01/12 10:28:27;;;;;;;;;;;;;;;;;;2061852;28;1317;-92
2022/01/12 10:30:03;;;;;;;;;;;;;;;;;;;;;
2022/01/12 10:31:07;;;;;;;;;;;;;;;;;;2064802;28;1391;-91
2022/01/12 10:32:32;;;;;;;;;;;;;;;;;;2066739;28;1528;-91
2022/01/12 10:33:48;;;;;;;;;;;;;;;;;;2063628;28;1360;-92
2022/01/12 10:35:00;;;;;;;;;;;;;;;;;;2067109;28;1289;-92
2022/01/12 10:36:10;;;;;;;;;;;;;;;;;;2065571;28;1257;-92
2022/01/12 10:38:57;;;;;;;;;;;;;;;;;;2067095;28;1409;-92
2022/01/12 10:40:22;;;;;;;;;;;;;;;;;;2068938;28;1299;-91
2022/01/12 10:41:35;;;;;;;;;;;;;;;;;;2074460;28;1972;-92
2022/01/12 10:44:19;;;;;;;;;;;;;;;;;;2063611;28;1615;-91
2022/01/12 10:45:24;;;;;;;;;;;;;;;;;;2052806;28;1308;-91
2022/01/12 10:46:28;;;;;;;;;;;;;;;;;;2052151;28;1379;-92
2022/01/12 10:47:34;;;;;;;;;;;;;;;;;;2059674;28;1392;-91
2022/01/12 10:48:43;;;;;;;;;;;;;;;;;;2067805;28;1225;-91
2022/01/12 10:49:48;;;;;;;;;;;;;;;;;;2083740;28;1261;-92
2022/01/12 10:50:55;;;;;;;;;;;;;;;;;;2075463;28;1299;-91
2022/01/12 10:52:00;;;;;;;;;;;;;;;;;;2068329;28;1235;-91
2022/01/12 10:55:17;;;;;;;;;;;;;;;;;;2073790;28;1068;-92
2022/01/12 10:56:24;;;;;;;;;;;;;;;;;;2067633;28;1307;-94
2022/01/12 10:57:35;;;;;;;;;;;;;;;;;;2067971;28;1388;-92
2022/01/12 10:58:48;;;;;;;;;;;;;;;;;;2068926;28;1419;-93
2022/01/12 11:00:18;;;;;;;;;;;;;;;;;;2069076;28;1387;-94
2022/01/12 11:01:31;;;;;;;;;;;;;;;;;;2079311;28;1902;-93
2022/01/12 11:03:16;;;;;;;;;;;;;;;;;;2063742;28;1808;-93
2022/01/12 11:04:21;;;;;;;;;;;;;;;;;;2054619;28;1324;-93
2022/01/12 11:07:39;;;;;;;;;;;;;;;;;;2072404;28;1256;-94
2022/01/12 11:08:55;;;;;;;;;;;;;;;;;;2075532;28;806;-94
2022/01/12 11:10:14;;;;;;;;;;;;;;;;;;2067688;28;1273;-93
2022/01/12 11:11:25;;;;;;;;;;;;;;;;;;2075770;28;1725;-93
2022/01/12 11:12:35;;;;;;;;;;;;;;;;;;2074953;28;1412;-94
2022/01/12 11:13:42;;;;;;;;;;;;;;;;;;2079905;28;1305;-94
2022/01/12 11:14:50;;;;;;;;;;;;;;;;;;2074371;28;1733;-94
2022/01/12 11:16:03;;;;;;;;;;;;;;;;;;2069086;28;1696;-95
2022/01/12 11:17:34;;;;;;;;;;;;;;;;;;2077274;28;1218;-93
2022/01/12 11:20:22;;;;;;;;;;;;;;;;;;2080588;28;1282;-93
2022/01/12 11:21:41;;;;;;;;;;;;;;;;;;2061437;28;1883;-96
2022/01/12 11:23:16;;;;;;;;;;;;;;;;;;2074803;28;1542;-95
2022/01/12 11:25:54;;;;;;;;;;;;;;;;;;2060759;28;1384;-92
2022/01/12 11:27:03;;;;;;;;;;;;;;;;;;2069898;28;1812;-92
2022/01/12 11:28:24;;;;;;;;;;;;;;;;;;2068477;28;1783;-95
2022/01/12 11:29:34;;;;;;;;;;;;;;;;;;2070171;28;1625;-94
2022/01/12 11:30:59;;;;;;;;;;;;;;;;;;2069254;28;1292;-94
2022/01/12 11:32:07;;;;;;;;;;;;;;;;;;2075980;28;1624;-94
2022/01/12 11:33:09;;;;;;;;;;;;;;;;;;2070932;28;1601;-91
2022/01/12 11:34:55;;;;;;;;;;;;;;;;;;2083103;28;1255;-90
2022/01/12 11:36:00;;;;;;;;;;;;;;;;;;2066049;28;1798;-93
2022/01/12 11:37:11;;;;;;;;;;;;;;;;;;2069858;28;1329;-94
2022/01/12 11:38:23;;;;;;;;;;;;;;;;;;2083435;28;1664;-96
2022/01/12 11:39:31;;;;;;;;;;;;;;;;;;2081564;28;1329;-93
2022/01/12 11:40:40;;;;;;;;;;;;;;;;;;2068890;28;1266;-94
2022/01/12 11:41:48;;;;;;;;;;;;;;;;;;2070815;28;1973;-96
2022/01/12 11:42:49;;;;;;;;;;;;;;;;;;2076219;28;1427;-94
2022/01/12 11:44:03;;;;;;;;;;;;;;;;;;2082348;28;1265;-95
2022/01/12 11:45:19;;;;;;;;;;;;;;;;;;2075493;28;1385;-96
2022/01/12 11:46:24;;;;;;;;;;;;;;;;;;2078300;28;1187;-96
2022/01/12 11:47:32;;;;;;;;;;;;;;;;;;2078720;28;1470;-96
2022/01/12 11:48:37;;;;;;;;;;;;;;;;;;2064265;28;1346;-95
2022/01/12 11:49:46;;;;;;;;;;;;;;;;;;2069675;28;1262;-95
2022/01/12 11:50:52;;;;;;;;;;;;;;;;;;2075340;28;1530;-95
2022/01/12 11:51:56;;;;;;;;;;;;;;;;;;2075034;28;1313;-95
2022/01/12 11:52:58;;;;;;;;;;;;;;;;;;2084108;28;1265;-96
2022/01/12 11:54:02;;;;;;;;;;;;;;;;;;2079065;28;1748;-95
2022/01/12 11:55:08;;;;;;;;;;;;;;;;;;2075381;28;1319;-94
2022/01/12 11:56:14;;;;;;;;;;;;;;;;;;2075909;28;1641;-96
2022/01/12 11:57:19;;;;;;;;;;;;;;;;;;2061707;28;1380;-93
2022/01/12 11:58:22;;;;;;;;;;;;;;;;;;2059576;28;1268;-94
2022/01/12 11:59:26;;;;;;;;;;;;;;;;;;2059395;28;1373;-93
2022/01/12 12:00:30;;;;;;;;;;;;;;;;;;2074412;28;1340;-94
2022/01/12 12:01:40;;;;;;;;;;;;;;;;;;2073109;28;1977;-95
2022/01/12 12:02:43;;;;;;;;;;;;;;;;;;2070854;28;1569;-93
2022/01/12 12:03:55;;;;;;;;;;;;;;;;;;2075980;28;1403;-90
2022/01/12 12:04:58;;;;;;;;;;;;;;;;;;2081340;28;1206;-95
2022/01/12 12:05:59;;;;;;;;;;;;;;;;;;2079276;28;1693;-93
2022/01/12 12:07:05;;;;;;;;;;;;;;;;;;2068086;28;1237;-93
2022/01/12 12:08:07;;;;;;;;;;;;;;;;;;2071058;28;1660;-93
2022/01/12 12:09:17;;;;;;;;;;;;;;;;;;2066721;28;1251;-94
2022/01/12 12:10:20;;;;;;;;;;;;;;;;;;2058763;28;1347;-94
2022/01/12 12:11:24;;;;;;;;;;;;;;;;;;2063670;28;1647;-94
2022/01/12 12:12:30;;;;;;;;;;;;;;;;;;2069489;28;1381;-93
2022/01/12 12:13:32;;;;;;;;;;;;;;;;;;2072569;28;1325;-93
2022/01/12 12:14:32;;;;;;;;;;;;;;;;;;2072907;28;1666;-93
2022/01/12 12:15:34;;;;;;;;;;;;;;;;;;2075220;28;1324;-93
2022/01/12 12:16:36;;;;;;;;;;;;;;;;;;2075387;28;1376;-92
2022/01/12 12:17:39;;;;;;;;;;;;;;;;;;2066327;28;1515;-93
2022/01/12 12:18:39;;;;;;;;;;;;;;;;;;2075599;28;1313;-93
2022/01/12 12:19:41;;;;;;;;;;;;;;;;;;2066827;28;1365;-94
2022/01/12 12:20:43;;;;;;;;;;;;;;;;;;2058826;28;1604;-93
2022/01/12 12:21:46;;;;;;;;;;;;;;;;;;2069723;28;1968;-93
2022/01/12 12:22:48;;;;;;;;;;;;;;;;;;2077694;28;1400;-93
2022/01/12 12:23:52;;;;;;;;;;;;;;;;;;2074407;28;1947;-95
2022/01/12 12:24:56;;;;;;;;;;;;;;;;;;2067781;28;1334;-95
2022/01/12 12:26:00;;;;;;;;;;;;;;;;;;2069617;28;1344;-94
2022/01/12 12:27:02;;;;;;;;;;;;;;;;;;2065960;28;1247;-93
2022/01/12 12:28:08;;;;;;;;;;;;;;;;;;2073753;28;1415;-94
2022/01/12 12:29:09;;;;;;;;;;;;;;;;;;2074538;28;1797;-94
2022/01/12 12:30:12;;;;;;;;;;;;;;;;;;2067034;28;1277;-93
2022/01/12 12:31:22;;;;;;;;;;;;;;;;;;2068856;28;1327;-94
2022/01/12 12:32:36;;;;;;;;;;;;;;;;;;2061429;28;1608;-95
2022/01/12 12:33:38;;;;;;;;;;;;;;;;;;2070136;28;1395;-94
2022/01/12 12:34:44;;;;;;;;;;;;;;;;;;2074657;28;1265;-93
2022/01/12 12:35:46;;;;;;;;;;;;;;;;;;2073642;28;1654;-95
2022/01/12 12:36:46;;;;;;;;;;;;;;;;;;2074758;28;1253;-94
2022/01/12 12:37:49;;;;;;;;;;;;;;;;;;2071298;28;1478;-93
2022/01/12 12:38:50;;;;;;;;;;;;;;;;;;2073485;28;1717;-94
2022/01/12 12:39:52;;;;;;;;;;;;;;;;;;2072050;28;1258;-93
2022/01/12 12:40:55;;;;;;;;;;;;;;;;;;2074232;28;1305;-92
2022/01/12 12:41:56;;;;;;;;;;;;;;;;;;2076539;28;1914;-94
2022/01/12 12:43:02;;;;;;;;;;;;;;;;;;2075581;28;1761;-95
2022/01/12 12:44:06;;;;;;;;;;;;;;;;;;2075211;28;1618;-94
2022/01/12 12:45:10;;;;;;;;;;;;;;;;;;2064355;28;1233;-94
2022/01/12 12:46:15;;;;;;;;;;;;;;;;;;2075733;28;1353;-93
2022/01/12 12:47:17;;;;;;;;;;;;;;;;;;2068093;28;1868;-92
2022/01/12 12:48:19;;;;;;;;;;;;;;;;;;2066545;28;1355;-93
2022/01/12 12:49:20;;;;;;;;;;;;;;;;;;2066715;28;1314;-96
2022/01/12 12:50:25;;;;;;;;;;;;;;;;;;2067006;28;1615;-94
2022/01/12 12:51:26;;;;;;;;;;;;;;;;;;2075004;28;1352;-93
2022/01/12 12:52:28;;;;;;;;;;;;;;;;;;2082788;28;1608;-93
2022/01/12 12:53:30;;;;;;;;;;;;;;;;;;2079482;28;1803;-93
2022/01/12 12:54:33;;;;;;;;;;;;;;;;;;2076883;28;1292;-93
2022/01/12 12:55:36;;;;;;;;;;;;;;;;;;2074451;28;1343;-95
2022/01/12 12:56:41;;;;;;;;;;;;;;;;;;2066748;28;1581;-94
2022/01/12 12:57:49;;;;;;;;;;;;;;;;;;2059586;28;1598;-92
2022/01/12 12:58:51;;;;;;;;;;;;;;;;;;2067041;28;1253;-92
2022/01/12 13:00:05;;;;;;;;;;;;;;;;;;2075339;28;1775;-92
2022/01/12 13:01:08;;;;;;;;;;;;;;;;;;2066624;28;1277;-92
2022/01/12 13:02:12;;;;;;;;;;;;;;;;;;2075449;28;1906;-94
2022/01/12 13:03:14;;;;;;;;;;;;;;;;;;2074173;28;1269;-96
2022/01/12 13:04:20;;;;;;;;;;;;;;;;;;2067950;28;926;-94
2022/01/12 13:05:22;;;;;;;;;;;;;;;;;;2068601;28;1883;-93
2022/01/12 13:06:27;;;;;;;;;;;;;;;;;;2068127;28;1660;-93
2022/01/12 13:07:29;;;;;;;;;;;;;;;;;;2083074;28;1718;-94
2022/01/12 13:08:31;;;;;;;;;;;;;;;;;;2082410;28;1751;-94
2022/01/12 13:09:31;;;;;;;;;;;;;;;;;;2082713;28;1297;-94
2022/01/12 13:10:33;;;;;;;;;;;;;;;;;;2083070;28;1277;-92
2022/01/12 13:11:35;;;;;;;;;;;;;;;;;;2080724;28;1566;-92
2022/01/12 13:12:39;;;;;;;;;;;;;;;;;;2067631;28;1675;-90
2022/01/12 13:13:40;;;;;;;;;;;;;;;;;;2077043;28;1426;-91
2022/01/12 13:14:42;;;;;;;;;;;;;;;;;;2072094;28;1649;-91
2022/01/12 13:15:46;;;;;;;;;;;;;;;;;;2071792;28;1309;-91
2022/01/12 13:16:48;;;;;;;;;;;;;;;;;;2074589;28;1305;-91
2022/01/12 13:17:57;;;;;;;;;;;;;;;;;;2068553;28;1736;-91
2022/01/12 13:19:06;;;;;;;;;;;;;;;;;;2064667;28;1663;-92
2022/01/12 13:21:39;;;;;;;;;;;;;;;;;;2065849;28;1356;-91
2022/01/12 13:22:42;;;;;;;;;;;;;;;;;;2062833;28;1902;-92
2022/01/12 13:23:44;;;;;;;;;;;;;;;;;;2066819;28;1836;-93
2022/01/12 13:24:45;;;;;;;;;;;;;;;;;;2074893;28;1023;-94
2022/01/12 13:25:47;;;;;;;;;;;;;;;;;;2066081;28;1245;-93
2022/01/12 13:26:47;;;;;;;;;;;;;;;;;;2074354;28;1827;-94
2022/01/12 13:27:52;;;;;;;;;;;;;;;;;;2076087;28;1344;-95
2022/01/12 13:28:54;;;;;;;;;;;;;;;;;;2075699;28;1294;-93
2022/01/12 13:29:54;;;;;;;;;;;;;;;;;;2071707;28;1550;-91
2022/01/12 13:30:58;;;;;;;;;;;;;;;;;;2073992;28;1348;-92
2022/01/12 13:32:15;;;;;;;;;;;;;;;;;;2071800;28;1439;-91
2022/01/12 13:33:24;;;;;;;;;;;;;;;;;;2067528;28;1267;-92
2022/01/12 13:34:30;;;;;;;;;;;;;;;;;;2073300;28;1401;-91
2022/01/12 13:35:34;;;;;;;;;;;;;;;;;;2073327;28;1519;-92
2022/01/12 13:36:37;;;;;;;;;;;;;;;;;;2065949;28;1408;-93
2022/01/12 13:37:39;;;;;;;;;;;;;;;;;;2068907;28;1422;-93
2022/01/12 13:38:41;;;;;;;;;;;;;;;;;;2074346;28;1520;-93
2022/01/12 13:39:42;;;;;;;;;;;;;;;;;;2074044;28;1661;-94
2022/01/12 13:40:45;;;;;;;;;;;;;;;;;;2065864;28;1345;-94
2022/01/12 13:41:52;;;;;;;;;;;;;;;;;;2072627;28;1576;-93
2022/01/12 13:42:56;;;;;;;;;;;;;;;;;;2075148;28;1906;-93
2022/01/12 13:44:04;;;;;;;;;;;;;;;;;;2077322;28;1527;-91
2022/01/12 13:45:14;;;;;;;;;;;;;;;;;;2076029;28;1058;-94
2022/01/12 13:46:18;;;;;;;;;;;;;;;;;;2074296;28;1387;-94
2022/01/12 13:47:24;;;;;;;;;;;;;;;;;;2074455;28;1234;-94
2022/01/12 13:48:30;;;;;;;;;;;;;;;;;;2074808;28;1249;-94
2022/01/12 13:49:32;;;;;;;;;;;;;;;;;;2074315;28;1313;-93
2022/01/12 13:50:36;;;;;;;;;;;;;;;;;;2062553;28;1876;-94
2022/01/12 13:51:38;;;;;;;;;;;;;;;;;;2061876;28;1846;-94
2022/01/12 13:52:41;;;;;;;;;;;;;;;;;;2075131;28;1329;-96
2022/01/12 13:53:42;;;;;;;;;;;;;;;;;;2069121;28;1776;-94
2022/01/12 13:54:45;;;;;;;;;;;;;;;;;;2058567;28;1425;-94
2022/01/12 13:55:53;;;;;;;;;;;;;;;;;;2066433;28;1240;-95
2022/01/12 13:56:54;;;;;;;;;;;;;;;;;;2066715;28;1768;-93
2022/01/12 13:57:56;;;;;;;;;;;;;;;;;;2066264;28;1192;-93
2022/01/12 13:59:04;;;;;;;;;;;;;;;;;;2066685;28;1077;-93
2022/01/12 14:00:09;;;;;;;;;;;;;;;;;;2062783;28;1682;-94
2022/01/12 14:01:30;;;;;;;;;;;;;;;;;;2074217;28;1531;-93
2022/01/12 14:02:32;;;;;;;;;;;;;;;;;;2074791;28;1914;-93
2022/01/12 14:03:39;;;;;;;;;;;;;;;;;;2076182;28;1402;-93
2022/01/12 14:04:45;;;;;;;;;;;;;;;;;;2088690;28;1305;-93
2022/01/12 14:05:48;;;;;;;;;;;;;;;;;;2073247;28;1733;-93
2022/01/12 14:06:53;;;;;;;;;;;;;;;;;;2074528;28;1289;-93
2022/01/12 14:08:03;;;;;;;;;;;;;;;;;;2081810;28;1398;-93
2022/01/12 14:09:26;;;;;;;;;;;;;;;;;;2078288;28;1202;-93
2022/01/12 14:10:29;;;;;;;;;;;;;;;;;;2068896;28;1431;-94
2022/01/12 14:11:35;;;;;;;;;;;;;;;;;;2066296;28;1348;-94
2022/01/12 14:12:37;;;;;;;;;;;;;;;;;;2074694;28;1354;-93
2022/01/12 14:13:41;;;;;;;;;;;;;;;;;;2074192;28;1381;-93
2022/01/12 14:14:50;;;;;;;;;;;;;;;;;;2067580;28;1497;-94
2022/01/12 14:15:52;;;;;;;;;;;;;;;;;;2075073;28;1269;-93
2022/01/12 14:16:58;;;;;;;;;;;;;;;;;;2073399;28;1405;-95
2022/01/12 14:17:59;;;;;;;;;;;;;;;;;;2081785;28;1755;-94
2022/01/12 14:19:01;;;;;;;;;;;;;;;;;;2075047;28;1380;-94
2022/01/12 14:20:04;;;;;;;;;;;;;;;;;;2071809;28;1221;-95
2022/01/12 14:21:16;;;;;;;;;;;;;;;;;;2068191;28;1302;-95
2022/01/12 14:22:19;;;;;;;;;;;;;;;;;;2068259;28;1910;-95
2022/01/12 14:23:21;;;;;;;;;;;;;;;;;;2069384;28;1587;-94
2022/01/12 14:24:22;;;;;;;;;;;;;;;;;;2075693;28;1302;-94
2022/01/12 14:25:35;;;;;;;;;;;;;;;;;;2075738;28;1351;-94
2022/01/12 14:26:48;;;;;;;;;;;;;;;;;;2077465;28;1796;-94
2022/01/12 14:27:50;;;;;;;;;;;;;;;;;;2069034;28;1353;-94
2022/01/12 14:28:51;;;;;;;;;;;;;;;;;;2067759;28;1486;-94
2022/01/12 14:29:53;;;;;;;;;;;;;;;;;;2075536;28;1685;-95
2022/01/12 14:30:56;;;;;;;;;;;;;;;;;;2087738;28;1366;-96
2022/01/12 14:31:59;;;;;;;;;;;;;;;;;;2079415;28;1400;-96
2022/01/12 14:33:00;;;;;;;;;;;;;;;;;;2073603;28;1708;-95
2022/01/12 14:34:02;;;;;;;;;;;;;;;;;;2068172;28;1540;-95
2022/01/12 14:35:06;;;;;;;;;;;;;;;;;;2069901;28;1678;-96
2022/01/12 14:36:15;;;;;;;;;;;;;;;;;;2067582;28;1403;-96
2022/01/12 14:37:21;;;;;;;;;;;;;;;;;;2064238;28;1200;-96
2022/01/12 14:38:28;;;;;;;;;;;;;;;;;;2063159;28;1741;-96
2022/01/12 14:39:33;;;;;;;;;;;;;;;;;;2069326;28;1413;-96
2022/01/12 14:40:37;;;;;;;;;;;;;;;;;;2076613;28;1610;-96
2022/01/12 14:41:39;;;;;;;;;;;;;;;;;;2071395;28;1583;-96
2022/01/12 14:42:44;;;;;;;;;;;;;;;;;;2077344;28;1910;-96
2022/01/12 14:43:53;;;;;;;;;;;;;;;;;;2074007;28;1552;-96
2022/01/12 14:44:57;;;;;;;;;;;;;;;;;;2070178;28;1681;-96